sensor_id;sensor_type;location;lat;lon;timestamp;pressure;altitude;pressure_sealevel;temperature;humidity
13478;BME280;12598;62.382;17.344;2023-09-19T00:00:59;100382.78;;;24.31;36.38
13478;BME280;12598;62.382;17.344;2023-09-19T00:02:04;100380.72;;;24.33;35.96
13478;BME280;12598;62.382;17.344;2023-09-19T00:03:10;100377.19;;;24.33;35.71
13478;BME280;12598;62.382;17.344;2023-09-19T00:04:13;100371.78;;;24.33;35.96
13478;BME280;12598;62.382;17.344;2023-09-19T00:05:16;100367.81;;;24.29;36.31
13478;BME280;12598;62.382;17.344;2023-09-19T00:06:18;100369.66;;;24.28;35.85
13478;BME280;12598;62.382;17.344;2023-09-19T00:07:20;100383.63;;;24.32;35.78
13478;BME280;12598;62.382;17.344;2023-09-19T00:08:23;100368.47;;;24.31;36.29
13478;BME280;12598;62.382;17.344;2023-09-19T00:09:25;100367.59;;;24.30;35.78
13478;BME280;12598;62.382;17.344;2023-09-19T00:10:29;100359.50;;;24.30;36.45
13478;BME280;12598;62.382;17.344;2023-09-19T00:11:32;100353.03;;;24.25;36.14
13478;BME280;12598;62.382;17.344;2023-09-19T00:12:36;100363.69;;;24.33;36.29
13478;BME280;12598;62.382;17.344;2023-09-19T00:13:37;100354.94;;;24.31;36.26
13478;BME280;12598;62.382;17.344;2023-09-19T00:14:39;100349.28;;;24.26;36.32
13478;BME280;12598;62.382;17.344;2023-09-19T00:15:46;100341.63;;;24.29;36.40
13478;BME280;12598;62.382;17.344;2023-09-19T00:16:52;100339.13;;;24.28;36.38
13478;BME280;12598;62.382;17.344;2023-09-19T00:17:56;100344.13;;;24.31;36.08
13478;BME280;12598;62.382;17.344;2023-09-19T00:18:58;100343.09;;;24.32;36.25
13478;BME280;12598;62.382;17.344;2023-09-19T00:20:04;100345.81;;;24.32;36.07
13478;BME280;12598;62.382;17.344;2023-09-19T00:21:09;100335.00;;;24.32;35.91
13478;BME280;12598;62.382;17.344;2023-09-19T00:22:11;100330.16;;;24.27;36.32
13478;BME280;12598;62.382;17.344;2023-09-19T00:23:14;100325.81;;;24.26;36.61
13478;BME280;12598;62.382;17.344;2023-09-19T00:24:16;100330.63;;;24.31;36.11
13478;BME280;12598;62.382;17.344;2023-09-19T00:25:19;100331.66;;;24.30;36.20
13478;BME280;12598;62.382;17.344;2023-09-19T00:26:21;100326.25;;;24.30;36.24
13478;BME280;12598;62.382;17.344;2023-09-19T00:27:23;100326.25;;;24.30;36.82
13478;BME280;12598;62.382;17.344;2023-09-19T00:28:25;100311.88;;;24.29;36.06
13478;BME280;12598;62.382;17.344;2023-09-19T00:29:27;100305.44;;;24.24;35.93
13478;BME280;12598;62.382;17.344;2023-09-19T00:30:36;100304.63;;;24.30;36.63
13478;BME280;12598;62.382;17.344;2023-09-19T00:31:40;100301.94;;;24.30;36.00
13478;BME280;12598;62.382;17.344;2023-09-19T00:32:42;100307.34;;;24.30;36.17
13478;BME280;12598;62.382;17.344;2023-09-19T00:33:44;100295.25;;;24.26;36.30
13478;BME280;12598;62.382;17.344;2023-09-19T00:34:46;100300.25;;;24.29;36.67
13478;BME280;12598;62.382;17.344;2023-09-19T00:35:49;100301.28;;;24.28;36.50
13478;BME280;12598;62.382;17.344;2023-09-19T00:36:51;100294.00;;;24.28;36.28
13478;BME280;12598;62.382;17.344;2023-09-19T00:37:55;100297.56;;;24.29;36.30
13478;BME280;12598;62.382;17.344;2023-09-19T00:38:57;100289.47;;;24.29;36.19
13478;BME280;12598;62.382;17.344;2023-09-19T00:39:59;100288.59;;;24.28;36.77
13478;BME280;12598;62.382;17.344;2023-09-19T00:41:01;100284.06;;;24.29;36.08
13478;BME280;12598;62.382;17.344;2023-09-19T00:42:03;100281.53;;;24.27;36.87
13478;BME280;12598;62.382;17.344;2023-09-19T00:43:06;100282.38;;;24.28;36.69
13478;BME280;12598;62.382;17.344;2023-09-19T00:44:09;100274.28;;;24.28;36.12
13478;BME280;12598;62.382;17.344;2023-09-19T00:45:13;100274.28;;;24.28;36.23
13478;BME280;12598;62.382;17.344;2023-09-19T00:46:18;100259.88;;;24.21;36.12
13478;BME280;12598;62.382;17.344;2023-09-19T00:47:21;100269.50;;;24.30;36.60
13478;BME280;12598;62.382;17.344;2023-09-19T00:48:24;100271.75;;;24.26;36.21
13478;BME280;12598;62.382;17.344;2023-09-19T00:49:29;100281.34;;;24.29;35.88
13478;BME280;12598;62.382;17.344;2023-09-19T00:50:32;100267.00;;;24.28;36.36
13478;BME280;12598;62.382;17.344;2023-09-19T00:51:34;100269.69;;;24.28;36.55
13478;BME280;12598;62.382;17.344;2023-09-19T00:52:38;100269.91;;;24.27;36.53
13478;BME280;12598;62.382;17.344;2023-09-19T00:53:40;100264.91;;;24.24;35.92
13478;BME280;12598;62.382;17.344;2023-09-19T00:54:48;100262.44;;;24.29;36.20
13478;BME280;12598;62.382;17.344;2023-09-19T00:55:50;100250.78;;;24.28;36.65
13478;BME280;12598;62.382;17.344;2023-09-19T00:56:53;100251.63;;;24.29;36.82
13478;BME280;12598;62.382;17.344;2023-09-19T00:57:56;100260.75;;;24.28;36.19
13478;BME280;12598;62.382;17.344;2023-09-19T00:58:58;100263.47;;;24.28;36.74
13478;BME280;12598;62.382;17.344;2023-09-19T01:00:05;100252.84;;;24.26;36.71
13478;BME280;12598;62.382;17.344;2023-09-19T01:01:09;100240.38;;;24.25;36.57
13478;BME280;12598;62.382;17.344;2023-09-19T01:02:14;100254.50;;;24.27;36.04
13478;BME280;12598;62.382;17.344;2023-09-19T01:03:17;100251.00;;;24.27;36.33
13478;BME280;12598;62.382;17.344;2023-09-19T01:04:20;100249.09;;;24.27;36.12
13478;BME280;12598;62.382;17.344;2023-09-19T01:05:22;100257.44;;;24.26;36.44
13478;BME280;12598;62.382;17.344;2023-09-19T01:06:25;100253.69;;;24.27;36.02
13478;BME280;12598;62.382;17.344;2023-09-19T01:07:30;100249.06;;;24.21;36.47
13478;BME280;12598;62.382;17.344;2023-09-19T01:08:32;100253.69;;;24.27;36.38
13478;BME280;12598;62.382;17.344;2023-09-19T01:09:34;100249.31;;;24.26;36.77
13478;BME280;12598;62.382;17.344;2023-09-19T01:10:43;100248.47;;;24.25;36.32
13478;BME280;12598;62.382;17.344;2023-09-19T01:11:48;100239.16;;;24.28;36.39
13478;BME280;12598;62.382;17.344;2023-09-19T01:14:55;100240.66;;;24.37;36.52
13478;BME280;12598;62.382;17.344;2023-09-19T01:16:06;100230.47;;;24.39;36.38
13478;BME280;12598;62.382;17.344;2023-09-19T01:17:30;100228.78;;;24.38;36.41
13478;BME280;12598;62.382;17.344;2023-09-19T01:18:55;100225.69;;;24.41;36.32
13478;BME280;12598;62.382;17.344;2023-09-19T01:20:13;100230.47;;;24.39;35.81
13478;BME280;12598;62.382;17.344;2023-09-19T01:21:27;100211.72;;;24.37;35.86
13478;BME280;12598;62.382;17.344;2023-09-19T01:23:05;100213.38;;;24.32;36.16
13478;BME280;12598;62.382;17.344;2023-09-19T01:24:23;100217.78;;;24.39;36.54
13478;BME280;12598;62.382;17.344;2023-09-19T01:26:09;100209.69;;;24.46;36.32
13478;BME280;12598;62.382;17.344;2023-09-19T01:27:17;100215.50;;;24.43;36.46
13478;BME280;12598;62.382;17.344;2023-09-19T01:29:49;100194.06;;;24.35;36.13
13478;BME280;12598;62.382;17.344;2023-09-19T01:30:56;100194.25;;;24.33;36.62
13478;BME280;12598;62.382;17.344;2023-09-19T01:32:04;100194.66;;;24.30;36.69
13478;BME280;12598;62.382;17.344;2023-09-19T01:33:06;100185.75;;;24.30;36.25
13478;BME280;12598;62.382;17.344;2023-09-19T01:34:09;100183.44;;;24.27;36.21
13478;BME280;12598;62.382;17.344;2023-09-19T01:35:11;100177.16;;;24.20;36.54
13478;BME280;12598;62.382;17.344;2023-09-19T01:36:14;100174.69;;;24.25;36.51
13478;BME280;12598;62.382;17.344;2023-09-19T01:37:18;100168.00;;;24.21;36.42
13478;BME280;12598;62.382;17.344;2023-09-19T01:38:22;100158.22;;;24.20;36.85
13478;BME280;12598;62.382;17.344;2023-09-19T01:39:24;100163.03;;;24.24;37.00
13478;BME280;12598;62.382;17.344;2023-09-19T01:40:26;100155.53;;;24.20;36.53
13478;BME280;12598;62.382;17.344;2023-09-19T01:41:42;100165.56;;;24.26;36.90
13478;BME280;12598;62.382;17.344;2023-09-19T01:44:17;100138.75;;;24.31;36.34
13478;BME280;12598;62.382;17.344;2023-09-19T01:45:33;100149.34;;;24.32;36.61
13478;BME280;12598;62.382;17.344;2023-09-19T01:46:40;100141.47;;;24.31;36.43
13478;BME280;12598;62.382;17.344;2023-09-19T01:47:49;100131.84;;;24.22;36.51
13478;BME280;12598;62.382;17.344;2023-09-19T01:50:15;100125.88;;;24.33;36.78
13478;BME280;12598;62.382;17.344;2023-09-19T01:51:32;100116.94;;;24.26;36.81
13478;BME280;12598;62.382;17.344;2023-09-19T01:52:40;100119.84;;;24.31;36.41
13478;BME280;12598;62.382;17.344;2023-09-19T01:53:51;100126.28;;;24.30;36.63
13478;BME280;12598;62.382;17.344;2023-09-19T01:55:01;100111.13;;;24.29;36.65
13478;BME280;12598;62.382;17.344;2023-09-19T01:56:12;100111.53;;;24.26;36.85
13478;BME280;12598;62.382;17.344;2023-09-19T01:57:35;100114.84;;;24.34;36.99
13478;BME280;12598;62.382;17.344;2023-09-19T01:58:46;100106.97;;;24.33;36.34
13478;BME280;12598;62.382;17.344;2023-09-19T01:59:59;100114.22;;;24.32;36.81
13478;BME280;12598;62.382;17.344;2023-09-19T02:01:03;100107.38;;;24.30;36.40
13478;BME280;12598;62.382;17.344;2023-09-19T02:02:08;100079.25;;;24.18;36.81
13478;BME280;12598;62.382;17.344;2023-09-19T02:03:11;100099.06;;;24.25;36.81
13478;BME280;12598;62.382;17.344;2023-09-19T02:04:14;100100.72;;;24.26;36.32
13478;BME280;12598;62.382;17.344;2023-09-19T02:05:23;100089.91;;;24.26;36.80
13478;BME280;12598;62.382;17.344;2023-09-19T02:06:29;100091.56;;;24.27;36.68
13478;BME280;12598;62.382;17.344;2023-09-19T02:07:32;100084.50;;;24.26;37.11
13478;BME280;12598;62.382;17.344;2023-09-19T02:08:34;100087.41;;;24.24;36.84
13478;BME280;12598;62.382;17.344;2023-09-19T02:09:36;100063.69;;;24.20;37.04
13478;BME280;12598;62.382;17.344;2023-09-19T02:10:40;100072.84;;;24.25;36.83
13478;BME280;12598;62.382;17.344;2023-09-19T02:11:43;100069.34;;;24.25;37.40
13478;BME280;12598;62.382;17.344;2023-09-19T02:12:44;100036.25;;;24.16;36.84
13478;BME280;12598;62.382;17.344;2023-09-19T02:13:47;100054.16;;;24.24;37.18
13478;BME280;12598;62.382;17.344;2023-09-19T02:14:54;100050.41;;;24.25;36.97
13478;BME280;12598;62.382;17.344;2023-09-19T02:15:59;100044.16;;;24.24;37.21
13478;BME280;12598;62.382;17.344;2023-09-19T02:17:04;100034.19;;;24.18;36.82
13478;BME280;12598;62.382;17.344;2023-09-19T02:18:11;100037.53;;;24.27;36.92
13478;BME280;12598;62.382;17.344;2023-09-19T02:19:20;100040.25;;;24.27;36.98
13478;BME280;12598;62.382;17.344;2023-09-19T02:20:23;100045.63;;;24.27;37.31
13478;BME280;12598;62.382;17.344;2023-09-19T02:21:27;100032.72;;;24.22;36.97
13478;BME280;12598;62.382;17.344;2023-09-19T02:22:33;100036.50;;;24.28;37.27
13478;BME280;12598;62.382;17.344;2023-09-19T02:23:35;100028.56;;;24.20;36.94
13478;BME280;12598;62.382;17.344;2023-09-19T02:24:37;100034.22;;;24.25;36.89
13478;BME280;12598;62.382;17.344;2023-09-19T02:25:39;100019.41;;;24.21;37.31
13478;BME280;12598;62.382;17.344;2023-09-19T02:26:42;100024.44;;;24.24;36.98
13478;BME280;12598;62.382;17.344;2023-09-19T02:27:45;100021.50;;;24.25;36.81
13478;BME280;12598;62.382;17.344;2023-09-19T02:28:47;100003.41;;;24.13;36.73
13478;BME280;12598;62.382;17.344;2023-09-19T02:29:49;100014.00;;;24.21;37.42
13478;BME280;12598;62.382;17.344;2023-09-19T02:30:51;100006.75;;;24.21;37.38
13478;BME280;12598;62.382;17.344;2023-09-19T02:31:53;100006.34;;;24.24;37.42
13478;BME280;12598;62.382;17.344;2023-09-19T02:32:58;100004.50;;;24.25;36.83
13478;BME280;12598;62.382;17.344;2023-09-19T02:34:00;100000.13;;;24.24;37.00
13478;BME280;12598;62.382;17.344;2023-09-19T02:35:02;99996.13;;;24.20;37.26
13478;BME280;12598;62.382;17.344;2023-09-19T02:36:05;100003.44;;;24.26;37.07
13478;BME280;12598;62.382;17.344;2023-09-19T02:37:07;99990.53;;;24.21;37.42
13478;BME280;12598;62.382;17.344;2023-09-19T02:38:10;99992.66;;;24.26;36.88
13478;BME280;12598;62.382;17.344;2023-09-19T02:39:13;99992.66;;;24.26;37.06
13478;BME280;12598;62.382;17.344;2023-09-19T02:40:15;99983.69;;;24.25;37.04
13478;BME280;12598;62.382;17.344;2023-09-19T02:41:21;99982.66;;;24.26;37.40
13478;BME280;12598;62.382;17.344;2023-09-19T02:42:23;99973.50;;;24.27;37.16
13478;BME280;12598;62.382;17.344;2023-09-19T02:43:25;99971.03;;;24.26;37.08
13478;BME280;12598;62.382;17.344;2023-09-19T02:44:27;99971.03;;;24.26;37.24
13478;BME280;12598;62.382;17.344;2023-09-19T02:45:31;99969.13;;;24.26;37.49
13478;BME280;12598;62.382;17.344;2023-09-19T02:46:34;99967.28;;;24.27;37.66
13478;BME280;12598;62.382;17.344;2023-09-19T02:47:40;99952.75;;;24.28;37.12
13478;BME280;12598;62.382;17.344;2023-09-19T02:48:42;99960.84;;;24.28;37.25
13478;BME280;12598;62.382;17.344;2023-09-19T02:49:44;99955.44;;;24.28;37.14
13478;BME280;12598;62.382;17.344;2023-09-19T02:50:49;99957.28;;;24.27;37.40
13478;BME280;12598;62.382;17.344;2023-09-19T02:51:51;99950.03;;;24.28;36.81
13478;BME280;12598;62.382;17.344;2023-09-19T02:52:53;99950.03;;;24.28;37.47
13478;BME280;12598;62.382;17.344;2023-09-19T02:53:55;99949.41;;;24.26;37.37
13478;BME280;12598;62.382;17.344;2023-09-19T02:54:57;99942.97;;;24.27;36.98
13478;BME280;12598;62.382;17.344;2023-09-19T02:55:59;99931.72;;;24.23;37.24
13478;BME280;12598;62.382;17.344;2023-09-19T02:57:01;99951.06;;;24.27;37.56
13478;BME280;12598;62.382;17.344;2023-09-19T02:58:03;99944.41;;;24.23;37.24
13478;BME280;12598;62.382;17.344;2023-09-19T02:59:06;99948.16;;;24.28;36.94
13478;BME280;12598;62.382;17.344;2023-09-19T03:00:09;99945.44;;;24.28;37.34
13478;BME280;12598;62.382;17.344;2023-09-19T03:01:14;99929.22;;;24.22;37.00
13478;BME280;12598;62.382;17.344;2023-09-19T03:02:17;99935.50;;;24.29;37.01
13478;BME280;12598;62.382;17.344;2023-09-19T03:03:20;99938.19;;;24.29;36.92
13478;BME280;12598;62.382;17.344;2023-09-19T03:04:23;99918.41;;;24.22;37.40
13478;BME280;12598;62.382;17.344;2023-09-19T03:05:25;99932.78;;;24.29;37.27
13478;BME280;12598;62.382;17.344;2023-09-19T03:06:28;99932.78;;;24.29;37.34
13478;BME280;12598;62.382;17.344;2023-09-19T03:07:33;99930.28;;;24.27;37.18
13478;BME280;12598;62.382;17.344;2023-09-19T03:08:36;99933.59;;;24.29;37.28
13478;BME280;12598;62.382;17.344;2023-09-19T03:09:41;99929.88;;;24.30;36.98
13478;BME280;12598;62.382;17.344;2023-09-19T03:10:47;99927.38;;;24.29;37.49
13478;BME280;12598;62.382;17.344;2023-09-19T03:11:52;99916.16;;;24.32;37.63
13478;BME280;12598;62.382;17.344;2023-09-19T03:12:54;99912.84;;;24.30;37.55
13478;BME280;12598;62.382;17.344;2023-09-19T03:13:56;99911.16;;;24.29;37.56
13478;BME280;12598;62.382;17.344;2023-09-19T03:14:59;99914.50;;;24.31;37.19
13478;BME280;12598;62.382;17.344;2023-09-19T03:16:01;99910.13;;;24.30;37.27
13478;BME280;12598;62.382;17.344;2023-09-19T03:17:06;99907.44;;;24.30;37.75
13478;BME280;12598;62.382;17.344;2023-09-19T03:18:11;99897.44;;;24.30;37.12
13478;BME280;12598;62.382;17.344;2023-09-19T03:19:14;99884.56;;;24.26;37.31
13478;BME280;12598;62.382;17.344;2023-09-19T03:20:17;99888.50;;;24.30;37.07
13478;BME280;12598;62.382;17.344;2023-09-19T03:21:21;99900.38;;;24.29;37.55
13478;BME280;12598;62.382;17.344;2023-09-19T03:22:23;99882.91;;;24.25;37.28
13478;BME280;12598;62.382;17.344;2023-09-19T03:23:27;99878.56;;;24.24;37.45
13478;BME280;12598;62.382;17.344;2023-09-19T03:24:30;99882.06;;;24.31;37.16
13478;BME280;12598;62.382;17.344;2023-09-19T03:25:34;99882.88;;;24.31;37.74
13478;BME280;12598;62.382;17.344;2023-09-19T03:26:38;99871.25;;;24.31;37.71
13478;BME280;12598;62.382;17.344;2023-09-19T03:27:40;99871.25;;;24.31;37.89
13478;BME280;12598;62.382;17.344;2023-09-19T03:28:42;99868.56;;;24.31;37.37
13478;BME280;12598;62.382;17.344;2023-09-19T03:29:44;99857.13;;;24.29;37.52
13478;BME280;12598;62.382;17.344;2023-09-19T03:30:46;99865.88;;;24.31;37.98
13478;BME280;12598;62.382;17.344;2023-09-19T03:31:58;99863.78;;;24.33;37.78
13478;BME280;12598;62.382;17.344;2023-09-19T03:33:00;99866.47;;;24.33;37.90
13478;BME280;12598;62.382;17.344;2023-09-19T03:34:04;99859.19;;;24.33;37.61
13478;BME280;12598;62.382;17.344;2023-09-19T03:35:06;99848.59;;;24.32;37.62
13478;BME280;12598;62.382;17.344;2023-09-19T03:36:09;99855.88;;;24.31;37.68
13478;BME280;12598;62.382;17.344;2023-09-19T03:37:11;99853.16;;;24.31;38.28
13478;BME280;12598;62.382;17.344;2023-09-19T03:38:13;99855.06;;;24.31;38.10
13478;BME280;12598;62.382;17.344;2023-09-19T03:39:14;99857.75;;;24.31;37.79
13478;BME280;12598;62.382;17.344;2023-09-19T03:40:17;99836.13;;;24.31;38.13
13478;BME280;12598;62.382;17.344;2023-09-19T03:41:23;99831.34;;;24.33;38.10
13478;BME280;12598;62.382;17.344;2023-09-19T03:42:25;99826.56;;;24.28;38.00
13478;BME280;12598;62.382;17.344;2023-09-19T03:43:28;99816.19;;;24.25;37.96
13478;BME280;12598;62.382;17.344;2023-09-19T03:44:30;99820.56;;;24.33;37.88
13478;BME280;12598;62.382;17.344;2023-09-19T03:45:33;99812.66;;;24.25;37.84
13478;BME280;12598;62.382;17.344;2023-09-19T03:46:35;99824.28;;;24.32;37.71
13478;BME280;12598;62.382;17.344;2023-09-19T03:47:39;99818.03;;;24.31;38.08
13478;BME280;12598;62.382;17.344;2023-09-19T03:48:43;99815.97;;;24.33;37.92
13478;BME280;12598;62.382;17.344;2023-09-19T03:49:46;99820.56;;;24.33;37.84
13478;BME280;12598;62.382;17.344;2023-09-19T03:50:48;99798.13;;;24.26;37.96
13478;BME280;12598;62.382;17.344;2023-09-19T03:51:50;99799.16;;;24.25;37.95
13478;BME280;12598;62.382;17.344;2023-09-19T03:52:56;99808.09;;;24.32;38.38
13478;BME280;12598;62.382;17.344;2023-09-19T03:53:58;99810.56;;;24.33;37.81
13478;BME280;12598;62.382;17.344;2023-09-19T03:55:00;99798.94;;;24.33;38.24
13478;BME280;12598;62.382;17.344;2023-09-19T03:56:04;99794.34;;;24.33;37.95
13478;BME280;12598;62.382;17.344;2023-09-19T03:57:07;99799.34;;;24.30;38.26
13478;BME280;12598;62.382;17.344;2023-09-19T03:58:09;99796.22;;;24.33;37.98
13478;BME280;12598;62.382;17.344;2023-09-19T03:59:13;99804.34;;;24.33;38.37
13478;BME280;12598;62.382;17.344;2023-09-19T04:00:15;99791.88;;;24.32;38.57
13478;BME280;12598;62.382;17.344;2023-09-19T04:01:19;99795.19;;;24.34;37.75
13478;BME280;12598;62.382;17.344;2023-09-19T04:02:22;99798.94;;;24.33;38.13
13478;BME280;12598;62.382;17.344;2023-09-19T04:03:25;99788.75;;;24.35;38.03
13478;BME280;12598;62.382;17.344;2023-09-19T04:04:36;99784.78;;;24.37;37.86
13478;BME280;12598;62.382;17.344;2023-09-19T04:05:38;99781.06;;;24.32;38.26
13478;BME280;12598;62.382;17.344;2023-09-19T04:06:40;99776.09;;;24.29;38.26
13478;BME280;12598;62.382;17.344;2023-09-19T04:07:42;99778.97;;;24.34;38.36
13478;BME280;12598;62.382;17.344;2023-09-19T04:08:44;99778.97;;;24.34;38.26
13478;BME280;12598;62.382;17.344;2023-09-19T04:09:46;99778.97;;;24.34;37.81
13478;BME280;12598;62.382;17.344;2023-09-19T04:10:48;99771.91;;;24.33;37.84
13478;BME280;12598;62.382;17.344;2023-09-19T04:11:51;99766.94;;;24.30;38.25
13478;BME280;12598;62.382;17.344;2023-09-19T04:12:54;99764.22;;;24.30;38.03
13478;BME280;12598;62.382;17.344;2023-09-19T04:13:57;99756.13;;;24.30;38.28
13478;BME280;12598;62.382;17.344;2023-09-19T04:14:58;99767.31;;;24.33;38.44
13478;BME280;12598;62.382;17.344;2023-09-19T04:16:00;99752.38;;;24.31;38.13
13478;BME280;12598;62.382;17.344;2023-09-19T04:17:02;99743.84;;;24.27;38.27
13478;BME280;12598;62.382;17.344;2023-09-19T04:18:05;99751.97;;;24.34;38.23
13478;BME280;12598;62.382;17.344;2023-09-19T04:19:07;99746.56;;;24.34;38.04
13478;BME280;12598;62.382;17.344;2023-09-19T04:20:10;99750.06;;;24.34;38.39
13478;BME280;12598;62.382;17.344;2023-09-19T04:21:14;99750.91;;;24.35;37.90
13478;BME280;12598;62.382;17.344;2023-09-19T04:22:15;99740.91;;;24.35;37.88
13478;BME280;12598;62.382;17.344;2023-09-19T04:23:18;99736.97;;;24.31;38.01
13478;BME280;12598;62.382;17.344;2023-09-19T04:24:22;99744.47;;;24.36;38.38
13478;BME280;12598;62.382;17.344;2023-09-19T04:25:24;99734.09;;;24.33;38.04
13478;BME280;12598;62.382;17.344;2023-09-19T04:26:29;99727.63;;;24.34;38.29
13478;BME280;12598;62.382;17.344;2023-09-19T04:27:31;99723.66;;;24.36;37.97
13478;BME280;12598;62.382;17.344;2023-09-19T04:28:33;99715.97;;;24.33;37.88
13478;BME280;12598;62.382;17.344;2023-09-19T04:29:36;99726.59;;;24.35;38.54
13478;BME280;12598;62.382;17.344;2023-09-19T04:30:39;99725.75;;;24.34;38.35
13478;BME280;12598;62.382;17.344;2023-09-19T04:31:44;99721.19;;;24.35;38.22
13478;BME280;12598;62.382;17.344;2023-09-19T04:32:47;99719.72;;;24.32;38.40
13478;BME280;12598;62.382;17.344;2023-09-19T04:33:52;99720.16;;;24.36;38.00
13478;BME280;12598;62.382;17.344;2023-09-19T04:34:54;99712.84;;;24.36;38.06
13478;BME280;12598;62.382;17.344;2023-09-19T04:36:01;99707.44;;;24.36;37.92
13478;BME280;12598;62.382;17.344;2023-09-19T04:37:25;99700.38;;;24.42;38.47
13478;BME280;12598;62.382;17.344;2023-09-19T04:38:26;99698.72;;;24.41;38.63
13478;BME280;12598;62.382;17.344;2023-09-19T04:39:30;99687.13;;;24.34;38.57
13478;BME280;12598;62.382;17.344;2023-09-19T04:40:32;99700.19;;;24.37;38.26
13478;BME280;12598;62.382;17.344;2023-09-19T04:41:34;99699.34;;;24.36;38.66
13478;BME280;12598;62.382;17.344;2023-09-19T04:42:36;99688.53;;;24.36;38.15
13478;BME280;12598;62.382;17.344;2023-09-19T04:43:38;99688.53;;;24.36;38.20
13478;BME280;12598;62.382;17.344;2023-09-19T04:44:40;99678.38;;;24.32;38.65
13478;BME280;12598;62.382;17.344;2023-09-19T04:45:42;99674.84;;;24.31;38.38
13478;BME280;12598;62.382;17.344;2023-09-19T04:46:44;99669.66;;;24.30;38.68
13478;BME280;12598;62.382;17.344;2023-09-19T04:47:48;99671.53;;;24.29;38.62
13478;BME280;12598;62.382;17.344;2023-09-19T04:48:49;99674.22;;;24.36;38.43
13478;BME280;12598;62.382;17.344;2023-09-19T04:49:51;99670.66;;;24.35;38.57
13478;BME280;12598;62.382;17.344;2023-09-19T04:50:53;99669.84;;;24.35;38.50
13478;BME280;12598;62.382;17.344;2023-09-19T04:51:55;99658.63;;;24.31;38.81
13478;BME280;12598;62.382;17.344;2023-09-19T04:52:57;99657.16;;;24.35;38.31
13478;BME280;12598;62.382;17.344;2023-09-19T04:53:59;99660.72;;;24.36;38.57
13478;BME280;12598;62.382;17.344;2023-09-19T04:55:01;99647.81;;;24.31;38.93
13478;BME280;12598;62.382;17.344;2023-09-19T04:56:03;99649.91;;;24.36;38.61
13478;BME280;12598;62.382;17.344;2023-09-19T04:57:05;99654.28;;;24.30;38.57
13478;BME280;12598;62.382;17.344;2023-09-19T04:58:07;99647.63;;;24.33;38.61
13478;BME280;12598;62.382;17.344;2023-09-19T04:59:09;99640.94;;;24.35;38.56
13478;BME280;12598;62.382;17.344;2023-09-19T05:00:16;99648.25;;;24.35;39.15
13478;BME280;12598;62.382;17.344;2023-09-19T05:01:21;99641.78;;;24.36;38.46
13478;BME280;12598;62.382;17.344;2023-09-19T05:02:24;99642.41;;;24.38;38.87
13478;BME280;12598;62.382;17.344;2023-09-19T05:03:26;99645.09;;;24.38;38.50
13478;BME280;12598;62.382;17.344;2023-09-19T05:04:28;99646.97;;;24.37;38.48
13478;BME280;12598;62.382;17.344;2023-09-19T05:05:30;99646.16;;;24.37;39.17
13478;BME280;12598;62.382;17.344;2023-09-19T05:06:32;99627.06;;;24.32;38.82
13478;BME280;12598;62.382;17.344;2023-09-19T05:07:35;99633.50;;;24.31;38.87
13478;BME280;12598;62.382;17.344;2023-09-19T05:08:37;99638.66;;;24.39;39.05
13478;BME280;12598;62.382;17.344;2023-09-19T05:09:40;99636.75;;;24.39;38.75
13478;BME280;12598;62.382;17.344;2023-09-19T05:10:43;99623.06;;;24.41;39.17
13478;BME280;12598;62.382;17.344;2023-09-19T05:11:46;99629.06;;;24.43;38.77
13478;BME280;12598;62.382;17.344;2023-09-19T05:12:48;99618.09;;;24.38;39.34
13478;BME280;12598;62.382;17.344;2023-09-19T05:13:53;99623.22;;;24.46;38.53
13478;BME280;12598;62.382;17.344;2023-09-19T05:14:55;99625.50;;;24.49;38.99
13478;BME280;12598;62.382;17.344;2023-09-19T05:16:00;99620.94;;;24.49;38.61
13478;BME280;12598;62.382;17.344;2023-09-19T05:17:03;99620.91;;;24.56;39.04
13478;BME280;12598;62.382;17.344;2023-09-19T05:18:05;99615.31;;;24.57;38.79
13478;BME280;12598;62.382;17.344;2023-09-19T05:19:08;99614.03;;;24.60;38.43
13478;BME280;12598;62.382;17.344;2023-09-19T05:20:13;99608.19;;;24.63;38.70
13478;BME280;12598;62.382;17.344;2023-09-19T05:21:18;99610.44;;;24.66;38.24
13478;BME280;12598;62.382;17.344;2023-09-19T05:22:20;99610.03;;;24.69;38.28
13478;BME280;12598;62.382;17.344;2023-09-19T05:23:22;99605.03;;;24.66;38.45
13478;BME280;12598;62.382;17.344;2023-09-19T05:24:23;99607.50;;;24.74;38.15
13478;BME280;12598;62.382;17.344;2023-09-19T05:25:29;99598.97;;;24.77;38.22
13478;BME280;12598;62.382;17.344;2023-09-19T05:26:31;99594.78;;;24.81;38.55
13478;BME280;12598;62.382;17.344;2023-09-19T05:27:32;99597.03;;;24.84;38.36
13478;BME280;12598;62.382;17.344;2023-09-19T05:28:35;99596.59;;;24.87;37.97
13478;BME280;12598;62.382;17.344;2023-09-19T05:29:37;99587.44;;;24.88;38.26
13478;BME280;12598;62.382;17.344;2023-09-19T05:30:39;99588.44;;;24.93;38.33
13478;BME280;12598;62.382;17.344;2023-09-19T05:31:41;99588.81;;;24.97;37.48
13478;BME280;12598;62.382;17.344;2023-09-19T05:32:44;99587.31;;;25.01;37.60
13478;BME280;12598;62.382;17.344;2023-09-19T05:33:46;99573.59;;;25.02;37.59
13478;BME280;12598;62.382;17.344;2023-09-19T05:34:48;99576.47;;;25.07;37.70
13478;BME280;12598;62.382;17.344;2023-09-19T05:35:50;99571.84;;;25.08;37.71
13478;BME280;12598;62.382;17.344;2023-09-19T05:36:51;99569.34;;;25.13;37.58
13478;BME280;12598;62.382;17.344;2023-09-19T05:37:54;99562.47;;;25.17;37.42
13478;BME280;12598;62.382;17.344;2023-09-19T05:38:56;99560.13;;;25.20;37.25
13478;BME280;12598;62.382;17.344;2023-09-19T05:39:58;99553.31;;;25.18;37.58